Time;durP1;ratioP1;P1;durP2;ratioP2;P2;SDS_P1;SDS_P2;PMS_P1;PMS_P2;Temp;Humidity;BMP_temperature;BMP_pressure;BME280_temperature;BME280_humidity;BME280_pressure;Samples;Min_cycle;Max_cycle;Signal;HPM_P1;HPM_P2
2021/11/30 00:00:49;;;;;;;;;;;;;;;3.89;50.58;98559.28;5003454;28;19948;-75
2021/11/30 00:03:15;;;;;;;;;;;;;;;3.53;54.48;98556.28;5002515;28;19978;-77
2021/11/30 00:05:40;;;;;;;;;;;;;;;3.92;53.50;98549.03;5002180;28;20044;-74
2021/11/30 00:08:06;;;;;;;;;;;;;;;3.56;56.77;98541.00;5002321;28;19930;-74
2021/11/30 00:10:46;;;;;;;;;;;;;;;3.29;58.50;98542.13;5001673;28;20012;-77
2021/11/30 00:13:12;;;;;;;;;;;;;;;3.34;57.37;98546.28;5000528;28;20083;-76
2021/11/30 00:15:37;;;;;;;;;;;;;;;3.53;55.02;98543.56;5000982;28;19913;-77
2021/11/30 00:18:03;;;;;;;;;;;;;;;3.65;56.13;98543.44;4999658;28;19975;-77
2021/11/30 00:20:28;;;;;;;;;;;;;;;3.31;58.54;98543.78;5000027;28;19948;-77
2021/11/30 00:22:54;;;;;;;;;;;;;;;3.33;57.33;98542.06;4984125;28;19963;-77
2021/11/30 00:25:19;;;;;;;;;;;;;;;3.42;57.25;98525.00;5014175;28;19918;-77
2021/11/30 00:27:44;;;;;;;;;;;;;;;3.31;58.29;98523.44;4999551;28;19917;-76
2021/11/30 00:30:10;;;;;;;;;;;;;;;3.59;56.91;98530.75;4998697;28;19922;-77
2021/11/30 00:32:35;;;;;;;;;;;;;;;3.37;60.76;98524.22;4982179;28;20620;-76
2021/11/30 00:35:01;;;;;;;;;;;;;;;3.60;61.01;98517.16;4976504;28;19928;-76
2021/11/30 00:37:26;;;;;;;;;;;;;;;3.62;61.79;98505.25;4998433;28;20463;-75
2021/11/30 00:39:51;;;;;;;;;;;;;;;3.32;63.87;98509.84;5002195;28;19933;-75
2021/11/30 00:42:20;;;;;;;;;;;;;;;3.75;62.87;98501.69;4999555;28;19918;-76
2021/11/30 00:44:47;;;;;;;;;;;;;;;3.63;65.27;98501.03;4999528;28;20337;-76
2021/11/30 00:47:18;;;;;;;;;;;;;;;3.91;66.37;98494.72;4999824;28;19928;-77
2021/11/30 00:49:44;;;;;;;;;;;;;;;3.78;71.25;98477.91;5000023;28;20394;-75
2021/11/30 00:52:09;;;;;;;;;;;;;;;3.99;70.82;98469.13;4983567;28;19918;-77
2021/11/30 00:54:34;;;;;;;;;;;;;;;3.44;74.64;98465.59;4996529;28;19918;-77
2021/11/30 00:57:00;;;;;;;;;;;;;;;3.87;72.43;98459.94;4996979;28;20626;-74
2021/11/30 00:59:28;;;;;;;;;;;;;;;3.73;75.51;98451.66;5000119;28;19926;-76
2021/11/30 01:01:58;;;;;;;;;;;;;;;3.62;78.63;98444.16;5014232;28;19952;-76
2021/11/30 01:04:23;;;;;;;;;;;;;;;3.89;77.83;98439.56;5000469;28;19917;-76
2021/11/30 01:06:48;;;;;;;;;;;;;;;3.50;82.94;98429.03;5006004;28;20008;-74
2021/11/30 01:09:14;;;;;;;;;;;;;;;3.63;81.74;98430.56;5005547;28;20295;-75
2021/11/30 01:11:39;;;;;;;;;;;;;;;3.62;82.51;98439.06;5002083;28;19991;-76
2021/11/30 01:14:05;;;;;;;;;;;;;;;3.58;85.09;98436.56;5001789;28;19925;-75
2021/11/30 01:16:30;;;;;;;;;;;;;;;3.62;85.90;98430.59;4981325;28;20248;-76
2021/11/30 01:18:56;;;;;;;;;;;;;;;3.68;85.82;98418.63;4984276;28;20470;-76
2021/11/30 01:21:22;;;;;;;;;;;;;;;3.40;87.40;98407.97;4998688;28;20017;-75
2021/11/30 01:23:47;;;;;;;;;;;;;;;3.52;86.33;98410.34;5001330;28;19924;-74
2021/11/30 01:26:12;;;;;;;;;;;;;;;3.31;88.11;98408.91;5000323;28;19921;-76
2021/11/30 01:28:38;;;;;;;;;;;;;;;3.43;88.38;98407.06;4997707;28;19995;-76
2021/11/30 01:31:04;;;;;;;;;;;;;;;3.92;88.74;98396.19;5001845;28;19917;-76
2021/11/30 01:33:29;;;;;;;;;;;;;;;3.52;92.98;98376.41;4998411;28;19960;-74
2021/11/30 01:35:55;;;;;;;;;;;;;;;3.43;93.28;98376.53;4999230;28;20423;-75
2021/11/30 01:38:21;;;;;;;;;;;;;;;3.78;94.66;98399.78;5000269;28;20032;-76
2021/11/30 01:40:47;;;;;;;;;;;;;;;3.78;97.68;98398.94;5000270;28;19929;-77
2021/11/30 01:43:19;;;;;;;;;;;;;;;3.66;100.00;98382.13;4999428;28;19933;-77
2021/11/30 01:49:12;;;;;;;;;;;;;;;3.38;100.00;98373.22;5000275;28;19921;-76
2021/11/30 01:50:56;;;;;;;;;;;;;;;3.50;100.00;98357.75;4999489;28;19921;-77
2021/11/30 01:53:22;;;;;;;;;;;;;;;3.52;100.00;98345.84;4999568;28;19925;-75
2021/11/30 01:55:47;;;;;;;;;;;;;;;3.38;100.00;98353.69;4998577;28;19932;-75
2021/11/30 01:58:13;;;;;;;;;;;;;;;3.17;100.00;98343.78;4999323;28;19925;-74
2021/11/30 02:00:40;;;;;;;;;;;;;;;3.45;100.00;98340.00;4999874;28;19961;-74
2021/11/30 02:03:06;;;;;;;;;;;;;;;3.37;100.00;98330.78;5000033;28;19922;-76
2021/11/30 02:05:35;;;;;;;;;;;;;;;3.44;100.00;98334.94;5002327;28;19930;-76
2021/11/30 02:08:01;;;;;;;;;;;;;;;3.62;100.00;98321.94;5001369;28;19927;-74
2021/11/30 02:10:26;;;;;;;;;;;;;;;3.73;100.00;98320.06;5004584;28;19921;-76
2021/11/30 02:12:53;;;;;;;;;;;;;;;3.63;100.00;98313.44;5002659;28;19925;-76
2021/11/30 02:15:18;;;;;;;;;;;;;;;3.49;100.00;98313.66;5002015;28;20358;-76
2021/11/30 02:17:44;;;;;;;;;;;;;;;3.37;100.00;98312.97;4999380;28;19922;-76
2021/11/30 02:20:10;;;;;;;;;;;;;;;3.07;100.00;98308.28;5003972;28;19926;-77
2021/11/30 02:22:35;;;;;;;;;;;;;;;3.21;100.00;98290.28;5002218;28;19921;-76
2021/11/30 02:25:01;;;;;;;;;;;;;;;3.14;100.00;98298.88;5002443;28;19947;-75
2021/11/30 02:27:26;;;;;;;;;;;;;;;2.86;100.00;98294.13;5003585;28;19921;-76
2021/11/30 02:29:51;;;;;;;;;;;;;;;2.88;100.00;98284.78;5003967;28;19921;-76
2021/11/30 02:32:19;;;;;;;;;;;;;;;2.96;100.00;98283.84;5000798;28;19955;-76
2021/11/30 02:34:44;;;;;;;;;;;;;;;2.84;100.00;98275.50;5000579;28;19921;-77
2021/11/30 02:37:13;;;;;;;;;;;;;;;3.09;100.00;98270.09;5000942;28;20019;-77
2021/11/30 02:39:38;;;;;;;;;;;;;;;3.28;100.00;98251.16;5001454;28;19917;-76
2021/11/30 02:42:05;;;;;;;;;;;;;;;2.56;100.00;98269.09;5003697;28;20495;-74
2021/11/30 02:44:31;;;;;;;;;;;;;;;2.92;100.00;98247.47;4985196;28;19921;-75
2021/11/30 02:46:57;;;;;;;;;;;;;;;2.98;100.00;98247.34;5003336;28;19931;-76
2021/11/30 02:49:23;;;;;;;;;;;;;;;3.11;100.00;98232.78;5002543;28;20032;-75
2021/11/30 02:51:51;;;;;;;;;;;;;;;2.93;100.00;98236.41;5003400;28;20582;-74
2021/11/30 02:54:18;;;;;;;;;;;;;;;2.87;100.00;98229.72;5003167;28;20004;-76
2021/11/30 02:56:44;;;;;;;;;;;;;;;2.68;100.00;98218.09;5001589;28;19968;-76
2021/11/30 02:59:10;;;;;;;;;;;;;;;2.51;100.00;98236.13;5001748;28;20338;-76
2021/11/30 03:01:36;;;;;;;;;;;;;;;2.71;100.00;98235.84;5003850;28;19922;-75
2021/11/30 03:04:12;;;;;;;;;;;;;;;2.60;100.00;98222.44;4984026;28;20014;-76
2021/11/30 03:06:38;;;;;;;;;;;;;;;2.42;100.00;98209.09;5002270;28;20430;-76
2021/11/30 03:09:03;;;;;;;;;;;;;;;2.54;100.00;98217.44;5001505;28;20003;-76
2021/11/30 03:11:29;;;;;;;;;;;;;;;2.45;100.00;98214.13;5001690;28;19917;-76
2021/11/30 03:13:54;;;;;;;;;;;;;;;2.32;100.00;98210.06;5001879;28;19921;-76
2021/11/30 03:16:20;;;;;;;;;;;;;;;2.78;100.00;98208.63;5001334;28;19920;-76
2021/11/30 03:18:45;;;;;;;;;;;;;;;2.18;100.00;98197.50;5002120;28;19918;-74
2021/11/30 03:21:10;;;;;;;;;;;;;;;2.63;100.00;98191.91;5001092;28;19925;-77
2021/11/30 03:23:36;;;;;;;;;;;;;;;2.42;100.00;98180.31;4984597;28;19921;-76
2021/11/30 03:26:01;;;;;;;;;;;;;;;2.32;100.00;98171.13;5000229;28;19936;-74
2021/11/30 03:28:27;;;;;;;;;;;;;;;2.67;100.00;98166.41;5001450;28;19956;-76
2021/11/30 03:30:57;;;;;;;;;;;;;;;2.37;100.00;98167.63;5002285;28;20021;-75
2021/11/30 03:36:07;;;;;;;;;;;;;;;2.28;100.00;98163.53;5002252;28;19924;-77
2021/11/30 03:38:32;;;;;;;;;;;;;;;2.42;100.00;98149.81;4985348;28;20004;-75
2021/11/30 03:40:57;;;;;;;;;;;;;;;2.13;100.00;98148.47;5001550;28;19969;-76
2021/11/30 03:43:23;;;;;;;;;;;;;;;2.57;100.00;98147.06;5018140;28;19922;-74
2021/11/30 03:45:48;;;;;;;;;;;;;;;2.39;100.00;98148.13;5002232;28;20428;-75
2021/11/30 03:48:14;;;;;;;;;;;;;;;2.33;100.00;98143.16;5001185;28;19979;-77
2021/11/30 03:50:39;;;;;;;;;;;;;;;2.40;100.00;98146.47;4999966;28;19928;-76
2021/11/30 03:53:04;;;;;;;;;;;;;;;2.53;100.00;98129.34;4982370;28;19929;-76
2021/11/30 03:55:30;;;;;;;;;;;;;;;2.97;100.00;98121.06;5001203;28;19996;-75
2021/11/30 03:57:55;;;;;;;;;;;;;;;2.46;100.00;98128.56;4983341;28;19953;-76
2021/11/30 04:00:20;;;;;;;;;;;;;;;2.60;100.00;98123.28;4999907;28;20342;-75
2021/11/30 04:02:46;;;;;;;;;;;;;;;2.65;100.00;98119.84;4999638;28;19921;-75
2021/11/30 04:05:11;;;;;;;;;;;;;;;2.71;100.00;98116.34;4999369;28;19918;-75
2021/11/30 04:07:36;;;;;;;;;;;;;;;2.26;100.00;98123.78;5000669;28;19918;-77
2021/11/30 04:10:03;;;;;;;;;;;;;;;2.68;100.00;98081.66;4999076;28;19975;-74
2021/11/30 04:12:28;;;;;;;;;;;;;;;2.50;100.00;98092.94;4999136;28;20520;-75
2021/11/30 04:14:53;;;;;;;;;;;;;;;2.33;100.00;98096.56;5001261;28;20295;-77
2021/11/30 04:17:19;;;;;;;;;;;;;;;2.49;100.00;98070.94;4997535;28;19914;-76
2021/11/30 04:19:45;;;;;;;;;;;;;;;2.68;100.00;98070.66;4997222;28;20016;-76
2021/11/30 04:22:11;;;;;;;;;;;;;;;2.64;100.00;98059.69;4982939;28;19914;-76
2021/11/30 04:24:37;;;;;;;;;;;;;;;2.97;100.00;98056.66;4997703;28;19922;-76
2021/11/30 04:27:03;;;;;;;;;;;;;;;2.41;100.00;98054.94;4997945;28;19925;-73
2021/11/30 04:29:28;;;;;;;;;;;;;;;2.84;100.00;98048.38;4999554;28;19914;-76
2021/11/30 04:31:54;;;;;;;;;;;;;;;2.65;100.00;98058.00;4982544;28;20004;-74
2021/11/30 04:34:20;;;;;;;;;;;;;;;2.72;100.00;98039.25;4999151;28;20004;-75
2021/11/30 04:36:45;;;;;;;;;;;;;;;2.65;100.00;98042.75;4998388;28;19917;-76
2021/11/30 04:39:10;;;;;;;;;;;;;;;2.37;100.00;98040.59;4999523;28;20293;-75
2021/11/30 04:41:36;;;;;;;;;;;;;;;2.72;100.00;98036.69;4996532;28;19925;-76
2021/11/30 04:44:03;;;;;;;;;;;;;;;2.53;100.00;98051.38;5002000;28;20246;-76
2021/11/30 04:46:39;;;;;;;;;;;;;;;2.85;99.79;98033.09;4997272;28;19920;-75
2021/11/30 04:49:14;;;;;;;;;;;;;;;2.77;99.66;98039.16;4983991;28;20377;-75
2021/11/30 04:51:40;;;;;;;;;;;;;;;2.89;98.46;98039.78;4995710;28;20367;-73
2021/11/30 04:54:05;;;;;;;;;;;;;;;2.78;100.00;98036.59;4998873;28;19921;-75
2021/11/30 04:56:30;;;;;;;;;;;;;;;2.89;97.92;98024.53;4997171;28;19917;-75
2021/11/30 04:58:56;;;;;;;;;;;;;;;2.53;95.28;98042.91;4998490;28;19932;-75
2021/11/30 05:01:22;;;;;;;;;;;;;;;2.74;89.71;98045.16;4998755;28;19933;-75
2021/11/30 05:03:48;;;;;;;;;;;;;;;2.91;88.83;98045.69;4999388;28;20432;-75
2021/11/30 05:06:13;;;;;;;;;;;;;;;2.98;88.04;98037.97;4997923;28;19932;-76
2021/11/30 05:08:39;;;;;;;;;;;;;;;3.26;86.56;98026.44;4997066;28;20337;-76
2021/11/30 05:11:04;;;;;;;;;;;;;;;3.05;89.20;98014.09;4994530;28;19928;-75
2021/11/30 05:13:30;;;;;;;;;;;;;;;3.10;86.60;98022.47;4997498;28;20290;-75
2021/11/30 05:15:57;;;;;;;;;;;;;;;3.04;82.93;98027.69;4997033;28;20387;-74
2021/11/30 05:18:22;;;;;;;;;;;;;;;3.26;81.32;98018.81;4996673;28;20256;-75
2021/11/30 05:20:48;;;;;;;;;;;;;;;3.17;81.89;98024.06;4997563;28;19929;-73
2021/11/30 05:23:15;;;;;;;;;;;;;;;3.24;78.56;98033.28;4998267;28;20001;-76
2021/11/30 05:25:41;;;;;;;;;;;;;;;3.26;79.89;98026.44;4999000;28;20299;-75
2021/11/30 05:28:07;;;;;;;;;;;;;;;2.96;53.33;98054.97;4998635;28;19921;-75
2021/11/30 05:30:38;;;;;;;;;;;;;;;3.03;15.46;98092.13;4978878;28;19921;-74
2021/11/30 05:33:07;;;;;;;;;;;;;;;3.34;33.40;98083.13;4998156;28;19921;-76
2021/11/30 05:35:33;;;;;;;;;;;;;;;3.05;41.42;98086.16;4980994;28;19925;-73
2021/11/30 05:37:58;;;;;;;;;;;;;;;3.28;42.60;98072.22;4997365;28;20272;-75
2021/11/30 05:40:24;;;;;;;;;;;;;;;3.09;47.08;98074.25;4996693;28;20381;-75
2021/11/30 05:42:49;;;;;;;;;;;;;;;3.24;48.26;98066.34;4997421;28;19924;-74
2021/11/30 05:45:15;;;;;;;;;;;;;;;3.27;47.51;98075.63;4999044;28;19987;-75
2021/11/30 05:47:41;;;;;;;;;;;;;;;3.45;48.04;98064.28;4981092;28;20355;-74
2021/11/30 05:50:06;;;;;;;;;;;;;;;3.38;50.63;98050.84;4998475;28;19960;-76
2021/11/30 05:52:31;;;;;;;;;;;;;;;3.27;52.90;98030.66;4998576;28;20366;-74
2021/11/30 05:54:57;;;;;;;;;;;;;;;3.40;51.60;98026.19;4998183;28;20024;-76
2021/11/30 05:57:23;;;;;;;;;;;;;;;3.46;51.33;98025.22;4999122;28;19922;-76
2021/11/30 05:59:49;;;;;;;;;;;;;;;3.42;51.99;98032.09;4988614;28;20264;-76
2021/11/30 06:02:14;;;;;;;;;;;;;;;3.13;50.59;98025.81;4999866;28;19917;-75
2021/11/30 06:04:40;;;;;;;;;;;;;;;3.28;48.98;98021.31;4999112;28;19924;-76
2021/11/30 06:07:05;;;;;;;;;;;;;;;3.52;47.68;98035.31;4998910;28;19952;-76
2021/11/30 06:09:33;;;;;;;;;;;;;;;3.45;47.78;98021.03;4999348;28;19921;-76
2021/11/30 06:11:58;;;;;;;;;;;;;;;3.63;46.09;98033.38;4999250;28;19921;-75
2021/11/30 06:14:24;;;;;;;;;;;;;;;3.73;47.96;98017.03;4997823;28;20445;-77
2021/11/30 06:16:49;;;;;;;;;;;;;;;3.55;48.92;98025.03;4998214;28;19929;-75
2021/11/30 06:19:15;;;;;;;;;;;;;;;3.86;47.53;98014.25;4991415;28;19960;-77
2021/11/30 06:21:41;;;;;;;;;;;;;;;3.52;49.16;98007.31;4989815;28;19921;-76
2021/11/30 06:24:06;;;;;;;;;;;;;;;3.88;47.70;98007.44;4997892;28;20209;-77
2021/11/30 06:26:31;;;;;;;;;;;;;;;3.92;48.67;97998.81;4996166;28;20759;-76
2021/11/30 06:28:57;;;;;;;;;;;;;;;3.84;47.43;98006.66;5000387;28;19917;-76
2021/11/30 06:31:22;;;;;;;;;;;;;;;3.84;49.64;98003.25;4999018;28;19917;-75
2021/11/30 06:33:47;;;;;;;;;;;;;;;3.98;46.80;97998.69;4997625;28;19917;-74
2021/11/30 06:36:13;;;;;;;;;;;;;;;4.23;47.14;97985.44;4997701;28;20519;-75
2021/11/30 06:38:38;;;;;;;;;;;;;;;3.84;47.96;97993.06;4996839;28;19921;-76
2021/11/30 06:41:04;;;;;;;;;;;;;;;4.05;45.38;97984.97;4997871;28;19933;-76
2021/11/30 06:43:29;;;;;;;;;;;;;;;3.92;47.82;97968.25;4998572;28;20056;-76
2021/11/30 06:45:54;;;;;;;;;;;;;;;4.15;45.62;97989.00;4990721;28;19967;-77
2021/11/30 06:48:20;;;;;;;;;;;;;;;3.89;45.92;97978.53;4994224;28;19920;-75
2021/11/30 06:50:46;;;;;;;;;;;;;;;3.95;45.00;97975.84;5003223;28;20004;-76
2021/11/30 06:53:11;;;;;;;;;;;;;;;3.90;42.54;97975.09;5001994;28;20453;-76
2021/11/30 06:55:37;;;;;;;;;;;;;;;4.12;38.25;97975.47;5001412;28;20601;-77
2021/11/30 06:58:02;;;;;;;;;;;;;;;4.26;37.82;97947.13;5004114;28;19965;-75
2021/11/30 07:00:27;;;;;;;;;;;;;;;4.28;36.99;97958.13;5001170;28;20012;-75
2021/11/30 07:02:53;;;;;;;;;;;;;;;4.47;35.01;97972.13;5002600;28;19939;-76
2021/11/30 07:05:25;;;;;;;;;;;;;;;4.11;36.04;97966.16;5001839;28;19922;-75
2021/11/30 07:10:34;;;;;;;;;;;;;;;4.29;31.78;97969.97;5001701;28;19927;-73
2021/11/30 07:15:28;;;;;;;;;;;;;;;4.51;27.55;97958.41;5000342;28;19923;-74
2021/11/30 07:17:53;;;;;;;;;;;;;;;4.45;28.37;97967.91;4996123;28;20290;-73
2021/11/30 07:20:19;;;;;;;;;;;;;;;4.48;26.86;97958.47;4994226;28;19925;-74
2021/11/30 07:22:44;;;;;;;;;;;;;;;4.57;26.10;97970.19;4998930;28;19924;-73
2021/11/30 07:25:09;;;;;;;;;;;;;;;4.34;26.16;97963.09;4999011;28;19937;-74
2021/11/30 07:27:35;;;;;;;;;;;;;;;4.60;24.32;97968.38;4983233;28;19928;-74
2021/11/30 07:30:00;;;;;;;;;;;;;;;4.58;23.78;97970.16;4996500;28;20265;-74
2021/11/30 07:32:26;;;;;;;;;;;;;;;4.58;21.26;97967.59;5001084;28;20574;-74
2021/11/30 07:34:51;;;;;;;;;;;;;;;4.65;21.62;97959.78;5000458;28;19925;-73
2021/11/30 07:37:17;;;;;;;;;;;;;;;4.76;20.54;97973.09;4997690;28;19925;-74
2021/11/30 07:39:42;;;;;;;;;;;;;;;4.68;18.38;97977.56;4994160;28;19932;-75
2021/11/30 07:42:07;;;;;;;;;;;;;;;4.59;17.74;97976.91;5000644;28;20024;-74
2021/11/30 07:44:33;;;;;;;;;;;;;;;4.68;15.59;97982.66;4991645;28;19927;-74
2021/11/30 07:46:58;;;;;;;;;;;;;;;4.66;16.07;97986.97;4994540;28;20343;-74
2021/11/30 07:49:23;;;;;;;;;;;;;;;5.08;13.74;97979.09;4982624;28;19961;-74
2021/11/30 07:51:49;;;;;;;;;;;;;;;4.80;16.53;97979.81;4999608;28;20016;-74
2021/11/30 07:54:14;;;;;;;;;;;;;;;4.81;13.24;97982.31;5000001;28;19925;-75
2021/11/30 07:56:40;;;;;;;;;;;;;;;4.92;11.13;97991.41;4999564;28;19917;-74
2021/11/30 07:59:05;;;;;;;;;;;;;;;5.02;10.86;97978.38;5000536;28;20272;-74
2021/11/30 08:01:31;;;;;;;;;;;;;;;5.06;13.79;97975.75;4999315;28;19965;-75
2021/11/30 08:03:56;;;;;;;;;;;;;;;5.21;9.90;97983.81;4999062;28;19963;-75
2021/11/30 08:06:22;;;;;;;;;;;;;;;5.13;9.07;97987.44;4982469;28;20435;-76
2021/11/30 08:08:50;;;;;;;;;;;;;;;5.18;10.31;97985.63;4999731;28;19921;-74
2021/11/30 08:11:15;;;;;;;;;;;;;;;5.01;10.17;97976.69;4995508;28;19918;-74
2021/11/30 08:13:41;;;;;;;;;;;;;;;5.41;5.43;97978.19;4997933;28;20205;-74
2021/11/30 08:16:06;;;;;;;;;;;;;;;5.18;8.71;97986.47;4998258;28;20532;-75
2021/11/30 08:18:32;;;;;;;;;;;;;;;5.20;6.11;97974.50;4998232;28;19922;-75
2021/11/30 08:20:57;;;;;;;;;;;;;;;5.35;4.01;97977.50;4993549;28;19988;-75
2021/11/30 08:23:22;;;;;;;;;;;;;;;5.29;5.60;97967.47;4981594;28;20011;-75
2021/11/30 08:25:48;;;;;;;;;;;;;;;5.34;6.36;97966.47;4995869;28;19925;-75
2021/11/30 08:28:13;;;;;;;;;;;;;;;5.48;4.75;97965.25;4996443;28;19928;-74
2021/11/30 08:30:38;;;;;;;;;;;;;;;5.41;4.64;97947.53;4999005;28;19940;-75
2021/11/30 08:33:04;;;;;;;;;;;;;;;5.35;4.87;97955.38;4998350;28;19924;-75
2021/11/30 08:35:30;;;;;;;;;;;;;;;5.57;3.17;97952.22;4997879;28;19914;-75
2021/11/30 08:37:55;;;;;;;;;;;;;;;5.64;2.97;97936.66;4980685;28;20225;-75
2021/11/30 08:40:20;;;;;;;;;;;;;;;5.56;4.03;97945.44;4998178;28;19976;-74
2021/11/30 08:42:46;;;;;;;;;;;;;;;5.44;3.90;97942.34;4998529;28;19917;-74
2021/11/30 08:45:11;;;;;;;;;;;;;;;5.66;2.08;97931.53;4996881;28;19929;-74
2021/11/30 08:47:37;;;;;;;;;;;;;;;5.54;3.04;97939.53;4999169;28;19918;-75
2021/11/30 08:50:05;;;;;;;;;;;;;;;5.95;1.67;97940.06;4998385;28;20513;-75
2021/11/30 08:52:30;;;;;;;;;;;;;;;5.98;1.62;97942.53;4999261;28;20346;-74
2021/11/30 08:54:56;;;;;;;;;;;;;;;5.60;2.84;97942.75;4996575;28;19922;-74
2021/11/30 08:57:22;;;;;;;;;;;;;;;5.55;1.63;97938.66;4997891;28;19928;-74
2021/11/30 08:59:48;;;;;;;;;;;;;;;5.71;0.48;97934.78;4997664;28;20494;-74
2021/11/30 09:02:14;;;;;;;;;;;;;;;5.80;0.00;97939.59;4997203;28;20019;-74
2021/11/30 09:04:39;;;;;;;;;;;;;;;5.81;0.00;97935.31;4994203;28;19921;-75
2021/11/30 09:07:04;;;;;;;;;;;;;;;5.79;0.00;97934.53;4997391;28;20397;-75
2021/11/30 09:09:30;;;;;;;;;;;;;;;5.83;0.00;97929.28;4998992;28;19953;-75
2021/11/30 09:11:56;;;;;;;;;;;;;;;5.74;0.00;97932.13;4981601;28;19965;-76
2021/11/30 09:14:22;;;;;;;;;;;;;;;6.19;0.00;97926.53;4998438;28;19921;-74
2021/11/30 09:16:48;;;;;;;;;;;;;;;5.93;0.00;97932.41;4997266;28;19929;-74
2021/11/30 09:19:14;;;;;;;;;;;;;;;6.15;0.00;97929.22;4978754;28;19925;-74
2021/11/30 09:21:39;;;;;;;;;;;;;;;6.02;0.00;97936.41;4998699;28;19925;-75
2021/11/30 09:24:05;;;;;;;;;;;;;;;6.04;0.00;97927.00;4998758;28;19917;-74
2021/11/30 09:26:30;;;;;;;;;;;;;;;5.98;0.00;97937.44;4998074;28;20273;-75
2021/11/30 09:28:56;;;;;;;;;;;;;;;6.18;0.00;97937.63;4996240;28;19925;-74
2021/11/30 09:31:23;;;;;;;;;;;;;;;6.32;0.00;97938.91;4989446;28;20322;-75
2021/11/30 09:33:48;;;;;;;;;;;;;;;6.03;0.00;97940.66;4997262;28;20258;-75
2021/11/30 09:36:15;;;;;;;;;;;;;;;6.06;0.00;97931.16;4994585;28;20326;-75
2021/11/30 09:38:41;;;;;;;;;;;;;;;6.08;0.00;97936.25;4997298;28;19921;-75
2021/11/30 09:41:07;;;;;;;;;;;;;;;6.12;0.00;97939.56;5010305;28;19925;-74
2021/11/30 09:43:33;;;;;;;;;;;;;;;6.04;0.00;97943.19;4979780;28;20001;-74
2021/11/30 09:45:59;;;;;;;;;;;;;;;6.21;0.00;97947.75;4980251;28;19921;-75
2021/11/30 09:48:24;;;;;;;;;;;;;;;6.20;0.00;97947.78;4996393;28;19917;-75
2021/11/30 09:50:50;;;;;;;;;;;;;;;6.22;0.00;97957.09;4997283;28;19979;-75
2021/11/30 09:53:15;;;;;;;;;;;;;;;6.21;0.00;97940.09;4996817;28;19993;-75
2021/11/30 09:55:41;;;;;;;;;;;;;;;6.49;0.00;97934.09;4980131;28;20021;-74
2021/11/30 09:58:06;;;;;;;;;;;;;;;6.26;0.00;97925.44;4998231;28;21069;-74
2021/11/30 10:00:34;;;;;;;;;;;;;;;6.25;0.00;97936.56;4998977;28;19922;-75
2021/11/30 10:02:59;;;;;;;;;;;;;;;6.35;0.00;97936.25;4998858;28;19961;-75
2021/11/30 10:05:25;;;;;;;;;;;;;;;6.38;0.00;97952.31;4996631;28;20042;-74
2021/11/30 10:07:51;;;;;;;;;;;;;;;6.38;0.00;97938.72;4998305;28;19925;-74
2021/11/30 10:10:22;;;;;;;;;;;;;;;6.59;0.00;97948.25;4994532;28;19967;-74
2021/11/30 10:12:55;;;;;;;;;;;;;;;6.45;0.00;97929.94;4995843;28;19922;-75
2021/11/30 10:15:20;;;;;;;;;;;;;;;6.39;0.00;97943.78;4979108;28;19921;-74
2021/11/30 10:17:45;;;;;;;;;;;;;;;6.48;0.00;97950.34;4995838;28;19922;-74
2021/11/30 10:20:12;;;;;;;;;;;;;;;6.54;0.00;97950.13;4996323;28;19975;-75
2021/11/30 10:22:41;;;;;;;;;;;;;;;6.62;0.00;97949.88;4998017;28;20354;-75
2021/11/30 10:25:13;;;;;;;;;;;;;;;6.48;0.00;97947.78;4998868;28;19979;-74
2021/11/30 10:27:43;;;;;;;;;;;;;;;6.55;0.00;97956.91;5000219;28;20440;-75
2021/11/30 10:30:09;;;;;;;;;;;;;;;6.56;0.00;97955.19;5000208;28;19914;-74
2021/11/30 10:32:35;;;;;;;;;;;;;;;6.57;0.00;97952.59;4998694;28;20000;-74
2021/11/30 10:35:01;;;;;;;;;;;;;;;6.61;0.00;97963.53;4999893;28;20020;-75
2021/11/30 10:37:27;;;;;;;;;;;;;;;6.67;0.00;97974.41;4999310;28;19921;-74
2021/11/30 10:39:52;;;;;;;;;;;;;;;6.68;0.00;97977.81;4999770;28;19937;-76
2021/11/30 10:42:22;;;;;;;;;;;;;;;6.59;0.00;97986.63;4999268;28;19975;-74
2021/11/30 10:44:51;;;;;;;;;;;;;;;6.62;0.00;98003.59;5000770;28;20055;-74
2021/11/30 10:47:18;;;;;;;;;;;;;;;6.61;0.00;98007.03;5000258;28;19929;-75
2021/11/30 10:49:45;;;;;;;;;;;;;;;6.69;0.00;98005.91;4999652;28;20013;-75
2021/11/30 10:52:14;;;;;;;;;;;;;;;6.55;0.00;98025.97;4983171;28;19917;-75
2021/11/30 10:54:39;;;;;;;;;;;;;;;6.75;0.00;98032.16;4999649;28;19918;-74
2021/11/30 10:57:05;;;;;;;;;;;;;;;6.69;0.00;98061.38;4983647;28;19944;-76
2021/11/30 10:59:30;;;;;;;;;;;;;;;6.69;0.00;98044.28;4994532;28;20119;-74
2021/11/30 11:01:55;;;;;;;;;;;;;;;6.69;0.00;98072.44;4993824;28;20388;-76
2021/11/30 11:04:27;;;;;;;;;;;;;;;6.72;0.00;98065.53;5000526;28;20236;-76
2021/11/30 11:07:03;;;;;;;;;;;;;;;6.53;0.00;98104.47;5000377;28;19939;-76
2021/11/30 11:09:59;;;;;;;;;;;;;;;6.69;0.00;98074.16;5003394;28;19944;-76
2021/11/30 11:12:25;;;;;;;;;;;;;;;6.67;0.00;98086.97;5014267;28;19944;-76
2021/11/30 11:14:51;;;;;;;;;;;;;;;6.60;0.00;98077.81;5005733;28;20294;-77
2021/11/30 11:17:29;;;;;;;;;;;;;;;6.65;0.00;98098.97;5008079;28;19932;-76
2021/11/30 11:19:55;;;;;;;;;;;;;;;6.59;0.00;98088.09;4998669;28;20043;-77
2021/11/30 11:22:23;;;;;;;;;;;;;;;6.68;0.00;98119.38;5001030;28;19996;-77
2021/11/30 11:24:50;;;;;;;;;;;;;;;6.63;0.00;98116.09;4999576;28;20060;-76
2021/11/30 11:27:16;;;;;;;;;;;;;;;6.70;0.00;98112.50;5000414;28;20390;-76
2021/11/30 11:29:43;;;;;;;;;;;;;;;6.68;0.00;98124.50;5001432;28;20512;-76
2021/11/30 11:32:08;;;;;;;;;;;;;;;6.55;0.00;98109.56;4985015;28;19957;-76
2021/11/30 11:34:35;;;;;;;;;;;;;;;6.60;0.00;98345.63;4997331;28;20420;-76
2021/11/30 11:37:01;;;;;;;;;;;;;;;7.18;0.00;98373.88;4999064;28;20379;-76
2021/11/30 11:39:27;;;;;;;;;;;;;;;7.07;0.00;98346.88;4983312;28;20513;-76
2021/11/30 11:41:53;;;;;;;;;;;;;;;7.00;0.00;98306.97;4999670;28;20060;-76
2021/11/30 11:44:19;;;;;;;;;;;;;;;7.02;0.00;98347.88;4999170;28;19922;-76
2021/11/30 11:46:47;;;;;;;;;;;;;;;7.03;0.00;98327.34;4996013;28;19921;-76
2021/11/30 11:49:13;;;;;;;;;;;;;;;7.09;0.00;98314.38;4992400;28;19921;-76
2021/11/30 11:51:39;;;;;;;;;;;;;;;6.99;0.00;98305.28;5000597;28;19921;-76
2021/11/30 11:54:05;;;;;;;;;;;;;;;7.02;0.00;98292.38;4999411;28;20405;-76
2021/11/30 11:56:31;;;;;;;;;;;;;;;7.02;0.00;98281.31;4996503;28;20282;-76
2021/11/30 11:59:08;;;;;;;;;;;;;;;6.96;0.00;98286.63;4998396;28;19920;-76
2021/11/30 12:01:34;;;;;;;;;;;;;;;6.98;0.00;98283.13;4999284;28;19951;-76
2021/11/30 12:03:59;;;;;;;;;;;;;;;6.99;0.00;98276.28;4999088;28;19917;-76
2021/11/30 12:06:27;;;;;;;;;;;;;;;6.87;0.00;98257.00;5000562;28;19932;-76
2021/11/30 12:09:07;;;;;;;;;;;;;;;6.79;0.00;98261.50;4998856;28;20593;-76
2021/11/30 12:11:43;;;;;;;;;;;;;;;6.88;0.00;98218.56;4999334;28;19968;-76
2021/11/30 12:14:13;;;;;;;;;;;;;;;6.82;0.00;98225.56;4998250;28;19961;-75
2021/11/30 12:16:56;;;;;;;;;;;;;;;6.91;0.00;98232.97;4997322;28;19917;-76
2021/11/30 12:19:26;;;;;;;;;;;;;;;6.87;0.00;98241.66;5000033;28;20014;-76
2021/11/30 12:21:51;;;;;;;;;;;;;;;6.94;0.00;98217.56;4997265;28;19929;-76
2021/11/30 12:24:31;;;;;;;;;;;;;;;6.94;0.00;98204.75;4999005;28;19917;-76
2021/11/30 12:26:56;;;;;;;;;;;;;;;7.04;0.00;98198.44;4998635;28;19925;-75
2021/11/30 12:29:30;;;;;;;;;;;;;;;7.05;0.00;98182.22;5000748;28;20335;-76
2021/11/30 12:31:56;;;;;;;;;;;;;;;7.10;0.00;98179.53;5000763;28;20043;-76
2021/11/30 12:34:31;;;;;;;;;;;;;;;7.10;0.00;98165.00;4981524;28;21033;-77
2021/11/30 12:37:03;;;;;;;;;;;;;;;7.01;0.00;98152.47;5000273;28;19914;-76
2021/11/30 12:39:32;;;;;;;;;;;;;;;7.00;0.00;98150.81;4996701;28;19951;-79
2021/11/30 12:41:59;;;;;;;;;;;;;;;7.01;0.00;98137.13;5015549;28;19921;-76
2021/11/30 12:44:25;;;;;;;;;;;;;;;6.90;0.00;98132.31;4998111;28;19982;-76
2021/11/30 12:46:54;;;;;;;;;;;;;;;6.83;0.00;98112.09;4998128;28;19921;-76
2021/11/30 12:49:22;;;;;;;;;;;;;;;6.89;0.00;98091.44;4997418;28;19925;-76
2021/11/30 12:51:49;;;;;;;;;;;;;;;6.99;0.00;98105.59;4999743;28;19967;-76
2021/11/30 12:54:22;;;;;;;;;;;;;;;6.89;0.00;98107.63;5000149;28;19918;-76
2021/11/30 12:56:54;;;;;;;;;;;;;;;6.88;0.00;98102.56;5002050;28;19979;-76
2021/11/30 12:59:41;;;;;;;;;;;;;;;6.88;0.00;98115.34;4998601;28;19961;-76
2021/11/30 13:02:23;;;;;;;;;;;;;;;6.86;0.00;98112.00;4999590;28;20513;-76
2021/11/30 13:04:49;;;;;;;;;;;;;;;6.81;0.00;98108.75;4998786;28;19959;-76